Time;durP1;ratioP1;P1;durP2;ratioP2;P2;SDS_P1;SDS_P2;PMS_P1;PMS_P2;Temp;Humidity;BMP_temperature;BMP_pressure;BME280_temperature;BME280_humidity;BME280_pressure;Samples;Min_cycle;Max_cycle;Signal;HPM_P1;HPM_P2
2023/04/14 00:00:17;;;;;;;;;;;8.30;99.90;;;;;;5096691;28;20398;-72
2023/04/14 00:02:43;;;;;;;;;;;8.20;99.90;;;;;;5096562;28;19908;-71
2023/04/14 00:05:09;;;;;;;;;;;8.20;99.90;;;;;;5096647;28;19915;-73
2023/04/14 00:07:34;;;;;;;;;;;8.20;99.90;;;;;;5096506;28;19908;-72
2023/04/14 00:10:00;;;;;;;;;;;8.10;99.90;;;;;;5096353;28;20371;-73
2023/04/14 00:12:25;;;;;;;;;;;8.10;99.90;;;;;;5078243;28;19919;-74
2023/04/14 00:14:51;;;;;;;;;;;8.20;99.90;;;;;;5096318;28;19908;-72
2023/04/14 00:17:16;;;;;;;;;;;8.10;99.90;;;;;;5078075;28;19991;-73
2023/04/14 00:19:42;;;;;;;;;;;8.20;99.90;;;;;;5096255;28;19907;-71
2023/04/14 00:22:08;;;;;;;;;;;8.10;99.90;;;;;;5095959;28;19916;-72
2023/04/14 00:24:39;;;;;;;;;;;8.10;99.90;;;;;;5096237;28;19909;-73
2023/04/14 00:27:05;;;;;;;;;;;8.10;99.90;;;;;;5096236;28;19957;-72
2023/04/14 00:29:31;;;;;;;;;;;8.10;99.90;;;;;;5077887;28;20006;-72
2023/04/14 00:31:56;;;;;;;;;;;8.10;99.90;;;;;;5096264;28;19916;-73
2023/04/14 00:34:22;;;;;;;;;;;8.10;99.90;;;;;;5077807;28;20007;-72
2023/04/14 00:36:47;;;;;;;;;;;8.10;99.90;;;;;;5095929;28;19962;-71
2023/04/14 00:39:13;;;;;;;;;;;8.10;99.90;;;;;;5077739;28;20290;-72
2023/04/14 00:41:38;;;;;;;;;;;8.20;99.90;;;;;;5095229;28;19963;-71
2023/04/14 00:44:04;;;;;;;;;;;8.20;99.90;;;;;;5095784;28;19915;-73
2023/04/14 00:46:30;;;;;;;;;;;8.40;99.90;;;;;;5095730;28;20299;-72
2023/04/14 00:48:55;;;;;;;;;;;8.40;99.90;;;;;;5095652;28;19908;-71
2023/04/14 00:51:22;;;;;;;;;;;8.40;99.90;;;;;;5095725;28;19967;-72
2023/04/14 00:53:50;;;;;;;;;;;8.30;99.90;;;;;;5095860;28;20375;-72
2023/04/14 00:56:16;;;;;;;;;;;8.20;99.90;;;;;;5095501;28;19923;-73
2023/04/14 00:58:41;;;;;;;;;;;8.30;99.90;;;;;;5095442;28;19908;-71
2023/04/14 01:01:07;;;;;;;;;;;8.30;99.90;;;;;;5077268;28;19908;-72
2023/04/14 01:03:35;;;;;;;;;;;8.30;99.90;;;;;;5095418;28;20005;-72
2023/04/14 01:06:00;;;;;;;;;;;8.30;99.90;;;;;;5095373;28;19908;-72
2023/04/14 01:08:26;;;;;;;;;;;8.30;99.90;;;;;;5077094;28;20295;-72
2023/04/14 01:11:03;;;;;;;;;;;8.30;99.90;;;;;;5077042;28;19958;-74
2023/04/14 01:13:32;;;;;;;;;;;8.30;99.90;;;;;;5095378;28;20341;-73
2023/04/14 01:15:59;;;;;;;;;;;8.30;99.90;;;;;;5095462;28;19909;-72
2023/04/14 01:18:30;;;;;;;;;;;8.30;99.90;;;;;;5095084;28;19908;-72
2023/04/14 01:20:57;;;;;;;;;;;8.40;99.90;;;;;;5076953;28;19954;-73
2023/04/14 01:23:28;;;;;;;;;;;8.40;99.90;;;;;;5094995;28;20427;-74
2023/04/14 01:26:00;;;;;;;;;;;8.30;99.90;;;;;;5095123;28;19915;-73
2023/04/14 01:28:44;;;;;;;;;;;8.30;99.90;;;;;;5094956;28;19940;-73
2023/04/14 01:31:18;;;;;;;;;;;8.10;99.90;;;;;;5094829;28;19912;-72
2023/04/14 01:33:48;;;;;;;;;;;8.10;99.90;;;;;;5094860;28;20322;-71
2023/04/14 01:36:26;;;;;;;;;;;8.10;99.90;;;;;;5094750;28;19908;-73
2023/04/14 01:38:52;;;;;;;;;;;8.10;99.90;;;;;;5094766;28;19912;-72
2023/04/14 01:41:20;;;;;;;;;;;8.00;99.90;;;;;;5094495;28;20299;-72
2023/04/14 01:43:46;;;;;;;;;;;;;;;;;;5094775;28;19908;-72
2023/04/14 01:46:13;;;;;;;;;;;7.90;99.90;;;;;;5094789;28;20320;-73
2023/04/14 01:48:41;;;;;;;;;;;7.90;99.90;;;;;;5094602;28;20000;-73
2023/04/14 01:51:07;;;;;;;;;;;7.80;99.90;;;;;;5094400;28;20018;-73
2023/04/14 01:53:35;;;;;;;;;;;7.70;99.90;;;;;;5093938;28;19908;-72
2023/04/14 01:56:02;;;;;;;;;;;7.70;99.90;;;;;;5094446;28;19908;-72
2023/04/14 01:58:29;;;;;;;;;;;7.70;99.90;;;;;;5094288;28;19908;-73
2023/04/14 02:00:55;;;;;;;;;;;7.70;99.90;;;;;;5094574;28;19914;-72
2023/04/14 02:03:20;;;;;;;;;;;7.70;99.90;;;;;;5094683;28;19912;-73
2023/04/14 02:05:47;;;;;;;;;;;7.60;99.90;;;;;;5076087;28;19912;-73
2023/04/14 02:08:15;;;;;;;;;;;7.60;99.90;;;;;;5094244;28;19908;-73
2023/04/14 02:10:41;;;;;;;;;;;7.60;99.90;;;;;;5094116;28;19912;-74
2023/04/14 02:13:09;;;;;;;;;;;7.60;99.90;;;;;;5094183;28;19908;-74
2023/04/14 02:15:35;;;;;;;;;;;7.60;99.90;;;;;;5094556;28;19915;-72
2023/04/14 02:18:01;;;;;;;;;;;7.50;99.90;;;;;;5094181;28;20002;-73
2023/04/14 02:20:27;;;;;;;;;;;7.50;99.90;;;;;;5094007;28;19943;-74
2023/04/14 02:22:53;;;;;;;;;;;7.50;99.90;;;;;;5094036;28;19908;-72
2023/04/14 02:25:22;;;;;;;;;;;7.50;99.90;;;;;;5094382;28;19957;-72
2023/04/14 02:27:51;;;;;;;;;;;7.50;99.90;;;;;;5075814;28;19952;-72
2023/04/14 02:30:21;;;;;;;;;;;7.50;99.90;;;;;;5093932;28;20372;-72
2023/04/14 02:32:49;;;;;;;;;;;7.60;99.90;;;;;;5093903;28;19912;-71
2023/04/14 02:35:23;;;;;;;;;;;7.60;99.90;;;;;;5093859;28;20380;-72
2023/04/14 02:37:52;;;;;;;;;;;7.60;99.90;;;;;;5094084;28;19912;-73
2023/04/14 02:40:23;;;;;;;;;;;7.60;99.90;;;;;;5093570;28;19920;-75
2023/04/14 02:42:51;;;;;;;;;;;7.60;99.90;;;;;;5093798;28;20348;-74
2023/04/14 02:45:21;;;;;;;;;;;7.60;99.90;;;;;;5093704;28;20012;-75
2023/04/14 02:47:50;;;;;;;;;;;7.60;99.90;;;;;;5093687;28;19944;-74
2023/04/14 02:50:17;;;;;;;;;;;7.60;99.90;;;;;;5093888;28;19942;-74
2023/04/14 02:52:46;;;;;;;;;;;7.60;99.90;;;;;;5093687;28;19991;-72
2023/04/14 02:55:12;;;;;;;;;;;7.70;99.90;;;;;;5093708;28;19999;-73
2023/04/14 02:57:38;;;;;;;;;;;7.70;99.90;;;;;;5093543;28;19943;-72
2023/04/14 03:00:05;;;;;;;;;;;7.70;99.90;;;;;;5093934;28;19908;-71
2023/04/14 03:02:30;;;;;;;;;;;7.70;99.90;;;;;;5093205;28;19915;-70
2023/04/14 03:04:56;;;;;;;;;;;7.70;99.90;;;;;;5095188;28;19953;-73
2023/04/14 03:07:22;;;;;;;;;;;7.70;99.90;;;;;;5097675;28;19951;-73
2023/04/14 03:09:49;;;;;;;;;;;7.70;99.90;;;;;;5098000;28;20399;-72
2023/04/14 03:12:15;;;;;;;;;;;7.80;99.90;;;;;;5097526;28;19915;-73
2023/04/14 03:14:41;;;;;;;;;;;7.80;99.90;;;;;;5079295;28;19908;-73
2023/04/14 03:17:08;;;;;;;;;;;7.80;99.90;;;;;;5097538;28;19916;-71
2023/04/14 03:19:35;;;;;;;;;;;7.80;99.90;;;;;;5097647;28;19951;-72
2023/04/14 03:22:02;;;;;;;;;;;7.80;99.90;;;;;;5097423;28;19918;-72
2023/04/14 03:24:30;;;;;;;;;;;7.80;99.90;;;;;;5097359;28;19908;-72
2023/04/14 03:27:04;;;;;;;;;;;7.80;99.90;;;;;;5097467;28;19995;-72
2023/04/14 03:29:40;;;;;;;;;;;7.70;99.90;;;;;;5097220;28;19908;-73
2023/04/14 03:32:07;;;;;;;;;;;7.70;1.00;;;;;;5078675;28;20268;-73
2023/04/14 03:34:33;;;;;;;;;;;7.70;1.00;;;;;;5097119;28;19994;-73
2023/04/14 03:36:59;;;;;;;;;;;7.70;1.00;;;;;;5097094;28;19908;-74
2023/04/14 03:39:27;;;;;;;;;;;7.80;1.00;;;;;;5078865;28;19908;-72
2023/04/14 03:41:56;;;;;;;;;;;7.80;1.00;;;;;;5096592;28;20370;-74
2023/04/14 03:44:22;;;;;;;;;;;7.80;1.00;;;;;;5096944;28;20436;-74
2023/04/14 03:46:48;;;;;;;;;;;7.80;1.00;;;;;;5097300;28;20392;-73
2023/04/14 03:49:15;;;;;;;;;;;7.80;1.00;;;;;;5097069;28;19908;-71
2023/04/14 03:51:42;;;;;;;;;;;7.80;1.00;;;;;;5096884;28;20003;-72
2023/04/14 03:54:09;;;;;;;;;;;7.80;1.00;;;;;;5096860;28;20042;-71
2023/04/14 03:56:37;;;;;;;;;;;7.80;1.00;;;;;;5097086;28;19915;-71
2023/04/14 03:59:03;;;;;;;;;;;7.70;1.00;;;;;;5096649;28;19908;-71
2023/04/14 04:01:28;;;;;;;;;;;7.70;1.00;;;;;;5078486;28;19915;-72
2023/04/14 04:03:54;;;;;;;;;;;7.70;1.00;;;;;;5096527;28;19908;-72
2023/04/14 04:06:20;;;;;;;;;;;7.70;1.00;;;;;;5096917;28;19951;-73
2023/04/14 04:08:46;;;;;;;;;;;7.80;1.00;;;;;;5096761;28;19962;-73
2023/04/14 04:11:13;;;;;;;;;;;7.80;1.00;;;;;;5096493;28;19912;-73
2023/04/14 04:13:40;;;;;;;;;;;7.80;1.00;;;;;;5096361;28;19915;-73
2023/04/14 04:16:07;;;;;;;;;;;7.80;1.00;;;;;;5095786;28;19955;-75
2023/04/14 04:18:37;;;;;;;;;;;7.80;1.00;;;;;;5096277;28;19931;-73
2023/04/14 04:21:03;;;;;;;;;;;7.80;1.00;;;;;;5096505;28;19908;-72
2023/04/14 04:23:31;;;;;;;;;;;7.90;1.00;;;;;;5096301;28;20415;-72
2023/04/14 04:25:57;;;;;;;;;;;7.90;1.00;;;;;;5096222;28;19948;-73
2023/04/14 04:28:23;;;;;;;;;;;7.90;1.00;;;;;;5096042;28;19912;-75
2023/04/14 04:30:49;;;;;;;;;;;7.90;1.00;;;;;;5096196;28;20371;-72
2023/04/14 04:33:15;;;;;;;;;;;7.90;1.00;;;;;;5096052;28;19936;-76
2023/04/14 04:35:41;;;;;;;;;;;8.00;1.00;;;;;;5096197;28;19974;-74
2023/04/14 04:38:10;;;;;;;;;;;8.00;1.00;;;;;;5096083;28;20007;-73
2023/04/14 04:40:37;;;;;;;;;;;8.00;1.00;;;;;;5077296;28;20285;-72
2023/04/14 04:43:03;;;;;;;;;;;8.00;1.00;;;;;;5095878;28;19962;-73
2023/04/14 04:45:35;;;;;;;;;;;8.00;1.00;;;;;;5095827;28;19912;-74
2023/04/14 04:48:00;;;;;;;;;;;8.00;1.00;;;;;;5095782;28;20283;-73
2023/04/14 04:50:26;;;;;;;;;;;8.10;1.00;;;;;;5095633;28;20019;-72
2023/04/14 04:52:52;;;;;;;;;;;8.00;1.00;;;;;;5095670;28;20014;-72
2023/04/14 04:55:17;;;;;;;;;;;8.00;1.00;;;;;;5077511;28;19908;-73
2023/04/14 04:57:43;;;;;;;;;;;8.10;1.00;;;;;;5095510;28;19912;-71
2023/04/14 05:00:08;;;;;;;;;;;8.10;1.00;;;;;;5077328;28;19909;-73
2023/04/14 05:02:34;;;;;;;;;;;8.10;1.00;;;;;;5077309;28;19916;-73
2023/04/14 05:05:00;;;;;;;;;;;8.10;1.00;;;;;;5095409;28;19908;-74
2023/04/14 05:07:25;;;;;;;;;;;8.10;1.00;;;;;;5095308;28;20287;-73
2023/04/14 05:09:51;;;;;;;;;;;8.20;1.00;;;;;;5077119;28;20002;-73
2023/04/14 05:12:16;;;;;;;;;;;8.20;1.00;;;;;;5095301;28;19919;-73
2023/04/14 05:14:42;;;;;;;;;;;8.20;1.00;;;;;;5095222;28;19915;-73
2023/04/14 05:17:08;;;;;;;;;;;8.20;1.00;;;;;;5095134;28;19940;-74
2023/04/14 05:19:33;;;;;;;;;;;8.20;1.00;;;;;;5095117;28;19915;-74
2023/04/14 05:21:59;;;;;;;;;;;8.30;1.00;;;;;;5095167;28;19909;-75
2023/04/14 05:24:24;;;;;;;;;;;8.30;1.00;;;;;;5095132;28;19908;-73
2023/04/14 05:26:50;;;;;;;;;;;8.30;1.00;;;;;;5094339;28;20387;-72
2023/04/14 05:29:16;;;;;;;;;;;8.30;1.00;;;;;;5095133;28;20403;-72
2023/04/14 05:31:41;;;;;;;;;;;8.30;1.00;;;;;;5095199;28;20403;-73
2023/04/14 05:34:07;;;;;;;;;;;8.30;1.00;;;;;;5094988;28;19908;-73
2023/04/14 05:36:32;;;;;;;;;;;8.30;1.00;;;;;;5094726;28;19908;-73
2023/04/14 05:38:58;;;;;;;;;;;8.40;1.00;;;;;;5094760;28;19995;-72
2023/04/14 05:41:24;;;;;;;;;;;8.30;1.00;;;;;;5094477;28;20014;-73
2023/04/14 05:43:50;;;;;;;;;;;8.40;1.00;;;;;;5094803;28;19908;-73
2023/04/14 05:46:15;;;;;;;;;;;8.40;1.00;;;;;;5094725;28;19908;-74
2023/04/14 05:48:41;;;;;;;;;;;8.40;1.00;;;;;;5094468;28;20383;-74
2023/04/14 05:51:06;;;;;;;;;;;8.40;1.00;;;;;;5094303;28;19922;-74
2023/04/14 05:53:32;;;;;;;;;;;8.40;1.00;;;;;;5094607;28;20329;-73
2023/04/14 05:55:57;;;;;;;;;;;8.50;1.00;;;;;;5094242;28;19908;-72
2023/04/14 05:58:25;;;;;;;;;;;8.50;1.00;;;;;;5094336;28;20398;-74
2023/04/14 06:00:50;;;;;;;;;;;8.50;1.00;;;;;;5094390;28;19958;-73
2023/04/14 06:03:16;;;;;;;;;;;8.60;1.00;;;;;;5094723;28;19912;-72
2023/04/14 06:05:42;;;;;;;;;;;8.50;1.00;;;;;;5094591;28;19907;-72
2023/04/14 06:08:07;;;;;;;;;;;8.50;1.00;;;;;;5094465;28;19909;-74
2023/04/14 06:10:34;;;;;;;;;;;8.60;1.00;;;;;;5075987;28;19919;-75
2023/04/14 06:13:00;;;;;;;;;;;8.60;1.00;;;;;;5094394;28;19908;-75
2023/04/14 06:15:28;;;;;;;;;;;8.70;1.00;;;;;;5094088;28;20390;-73
2023/04/14 06:17:54;;;;;;;;;;;8.70;1.00;;;;;;5075816;28;19908;-72
2023/04/14 06:20:20;;;;;;;;;;;8.70;1.00;;;;;;5094079;28;19909;-73
2023/04/14 06:22:46;;;;;;;;;;;8.70;1.00;;;;;;5094008;28;20380;-74
2023/04/14 06:25:12;;;;;;;;;;;8.80;1.00;;;;;;5093812;28;19908;-73
2023/04/14 06:27:37;;;;;;;;;;;8.80;1.00;;;;;;5093948;28;19908;-73
2023/04/14 06:30:04;;;;;;;;;;;8.80;1.00;;;;;;5094176;28;19908;-74
2023/04/14 06:32:30;;;;;;;;;;;8.90;1.00;;;;;;5093874;28;19951;-74
2023/04/14 06:34:56;;;;;;;;;;;8.90;1.00;;;;;;5093902;28;19914;-74
2023/04/14 06:37:21;;;;;;;;;;;8.80;1.00;;;;;;5094043;28;19957;-73
2023/04/14 06:39:47;;;;;;;;;;;8.90;1.00;;;;;;5075300;28;19915;-74
2023/04/14 06:42:12;;;;;;;;;;;8.90;1.00;;;;;;5093982;28;20363;-74
2023/04/14 06:44:38;;;;;;;;;;;9.00;1.00;;;;;;5093752;28;19977;-73
2023/04/14 06:47:04;;;;;;;;;;;9.10;1.00;;;;;;5093711;28;19995;-72
2023/04/14 06:49:30;;;;;;;;;;;9.30;1.00;;;;;;5093627;28;19966;-74
2023/04/14 06:51:55;;;;;;;;;;;9.40;1.00;;;;;;5093668;28;20367;-71
2023/04/14 06:54:21;;;;;;;;;;;9.60;1.00;;;;;;5075550;28;19912;-72
2023/04/14 06:56:46;;;;;;;;;;;9.80;1.00;;;;;;5093526;28;19998;-72
2023/04/14 06:59:12;;;;;;;;;;;9.90;1.00;;;;;;5093521;28;19915;-73
2023/04/14 07:01:37;;;;;;;;;;;10.20;1.00;;;;;;5093770;28;20275;-74
2023/04/14 07:04:03;;;;;;;;;;;10.40;1.00;;;;;;5093623;28;19958;-74
2023/04/14 07:06:30;;;;;;;;;;;10.80;1.00;;;;;;5093610;28;19908;-72
2023/04/14 07:08:55;;;;;;;;;;;11.10;1.00;;;;;;5093549;28;19959;-73
2023/04/14 07:11:22;;;;;;;;;;;11.40;1.00;;;;;;5093440;28;19920;-73
2023/04/14 07:13:48;;;;;;;;;;;11.60;1.00;;;;;;5093531;28;19947;-74
2023/04/14 07:16:14;;;;;;;;;;;11.60;1.00;;;;;;5093466;28;19908;-74
2023/04/14 07:18:39;;;;;;;;;;;11.60;1.00;;;;;;5093437;28;19908;-74
2023/04/14 07:21:05;;;;;;;;;;;11.60;1.00;;;;;;5093433;28;20359;-72
2023/04/14 07:23:32;;;;;;;;;;;11.60;1.00;;;;;;5093535;28;19931;-73
2023/04/14 07:25:58;;;;;;;;;;;11.70;1.00;;;;;;5093680;28;19908;-74
2023/04/14 07:28:24;;;;;;;;;;;12.00;1.00;;;;;;5093426;28;19917;-73
2023/04/14 07:30:50;;;;;;;;;;;12.20;1.00;;;;;;5093207;28;19918;-74
2023/04/14 07:33:20;;;;;;;;;;;12.40;99.90;;;;;;5093281;28;19909;-74
2023/04/14 07:35:47;;;;;;;;;;;12.70;1.00;;;;;;5093480;28;20383;-72
2023/04/14 07:38:12;;;;;;;;;;;12.50;1.00;;;;;;5093346;28;20318;-73
2023/04/14 07:40:38;;;;;;;;;;;12.30;99.90;;;;;;5092993;28;19927;-73
2023/04/14 07:43:04;;;;;;;;;;;12.10;99.90;;;;;;5093186;28;20012;-73
2023/04/14 07:45:30;;;;;;;;;;;12.20;1.00;;;;;;5093618;28;19908;-75
2023/04/14 07:47:56;;;;;;;;;;;12.60;1.00;;;;;;5093183;28;20292;-73
2023/04/14 07:50:21;;;;;;;;;;;12.80;1.00;;;;;;5075496;28;19923;-74
2023/04/14 07:52:47;;;;;;;;;;;12.80;99.90;;;;;;5096798;28;19961;-74
2023/04/14 07:55:12;;;;;;;;;;;12.80;99.90;;;;;;5096763;28;19908;-75
2023/04/14 07:57:39;;;;;;;;;;;13.00;99.90;;;;;;5096647;28;19908;-73
2023/04/14 08:00:05;;;;;;;;;;;13.10;99.90;;;;;;5096693;28;20004;-75
2023/04/14 08:02:31;;;;;;;;;;;13.60;99.90;;;;;;5096761;28;19908;-75
2023/04/14 08:04:56;;;;;;;;;;;14.10;99.90;;;;;;5097298;28;20498;-73
2023/04/14 08:07:22;;;;;;;;;;;13.70;99.90;;;;;;5096951;28;19950;-73
2023/04/14 08:09:48;;;;;;;;;;;13.30;99.90;;;;;;5096517;28;20414;-73
2023/04/14 08:12:14;;;;;;;;;;;12.70;99.90;;;;;;5096460;28;19918;-73
2023/04/14 08:14:40;;;;;;;;;;;12.50;99.90;;;;;;5096350;28;20401;-73
2023/04/14 08:17:06;;;;;;;;;;;12.40;99.90;;;;;;5096568;28;19909;-73
2023/04/14 08:19:32;;;;;;;;;;;12.50;99.90;;;;;;5096294;28;19908;-73
2023/04/14 08:21:58;;;;;;;;;;;12.30;99.90;;;;;;5096274;28;19954;-73
2023/04/14 08:24:24;;;;;;;;;;;12.10;1.00;;;;;;5096273;28;19912;-73
2023/04/14 08:26:49;;;;;;;;;;;12.10;1.00;;;;;;5096273;28;19908;-73
2023/04/14 08:29:15;;;;;;;;;;;11.90;1.00;;;;;;5096184;28;19915;-73
2023/04/14 08:31:41;;;;;;;;;;;11.90;1.00;;;;;;5077890;28;19912;-73
2023/04/14 08:34:06;;;;;;;;;;;12.00;1.00;;;;;;5096101;28;19916;-72
2023/04/14 08:36:32;;;;;;;;;;;12.00;1.00;;;;;;5096095;28;20359;-73
2023/04/14 08:39:00;;;;;;;;;;;12.30;1.00;;;;;;5095864;28;19930;-73
2023/04/14 08:41:27;;;;;;;;;;;13.10;1.00;;;;;;5077903;28;20311;-74
2023/04/14 08:43:55;;;;;;;;;;;14.30;1.00;;;;;;5095066;28;20217;-74
2023/04/14 08:46:20;;;;;;;;;;;15.40;99.90;;;;;;5077569;28;19983;-74
2023/04/14 08:48:47;;;;;;;;;;;18.20;99.90;;;;;;5095767;28;20284;-73
2023/04/14 08:51:15;;;;;;;;;;;17.20;99.90;;;;;;5095737;28;19934;-74
2023/04/14 08:53:44;;;;;;;;;;;16.00;99.90;;;;;;5095654;28;19999;-73
2023/04/14 08:56:10;;;;;;;;;;;15.30;99.90;;;;;;5095629;28;19995;-73
2023/04/14 08:58:36;;;;;;;;;;;15.10;99.90;;;;;;5095543;28;19961;-73
2023/04/14 09:01:03;;;;;;;;;;;15.10;99.90;;;;;;5095623;28;19908;-74
2023/04/14 09:03:29;;;;;;;;;;;15.30;99.90;;;;;;5095482;28;19908;-73
2023/04/14 09:05:55;;;;;;;;;;;15.80;99.90;;;;;;5077419;28;20379;-73
2023/04/14 09:08:21;;;;;;;;;;;15.70;99.90;;;;;;5095695;28;19916;-73
2023/04/14 09:10:47;;;;;;;;;;;15.30;99.90;;;;;;5095305;28;19955;-74
2023/04/14 09:13:15;;;;;;;;;;;14.80;99.90;;;;;;5095313;28;19908;-72
2023/04/14 09:15:41;;;;;;;;;;;14.60;99.90;;;;;;5094841;28;19962;-75
2023/04/14 09:18:06;;;;;;;;;;;14.40;99.90;;;;;;5095351;28;19955;-72
2023/04/14 09:20:32;;;;;;;;;;;14.10;99.90;;;;;;5095268;28;20419;-72
2023/04/14 09:22:58;;;;;;;;;;;14.00;99.90;;;;;;5095124;28;19914;-72
2023/04/14 09:25:23;;;;;;;;;;;14.00;99.90;;;;;;5076823;28;19907;-73
2023/04/14 09:27:49;;;;;;;;;;;13.80;99.90;;;;;;5095281;28;19934;-73
2023/04/14 09:30:16;;;;;;;;;;;13.40;99.90;;;;;;5094889;28;20368;-73
2023/04/14 09:32:43;;;;;;;;;;;13.10;12.40;;;;;;5095321;28;19908;-72
2023/04/14 09:35:12;;;;;;;;;;;13.00;1.00;;;;;;5094814;28;19947;-73
2023/04/14 09:37:44;;;;;;;;;;;13.20;99.90;;;;;;5094924;28;20302;-74
2023/04/14 09:40:10;;;;;;;;;;;13.30;99.90;;;;;;5094591;28;19920;-73
2023/04/14 09:42:37;;;;;;;;;;;13.50;99.90;;;;;;5094709;28;19912;-73
2023/04/14 09:45:04;;;;;;;;;;;13.60;99.90;;;;;;5094869;28;20280;-73
2023/04/14 09:47:30;;;;;;;;;;;13.60;99.90;;;;;;5094651;28;19908;-73
2023/04/14 09:49:57;;;;;;;;;;;13.50;99.90;;;;;;5094547;28;20364;-72
2023/04/14 09:52:35;;;;;;;;;;;13.30;99.90;;;;;;5094599;28;20042;-74
2023/04/14 09:55:00;;;;;;;;;;;13.30;99.90;;;;;;5094710;28;19956;-73
2023/04/14 09:57:27;;;;;;;;;;;13.40;99.90;;;;;;5094409;28;19911;-73
2023/04/14 09:59:52;;;;;;;;;;;13.50;99.90;;;;;;5094463;28;19908;-74
2023/04/14 10:02:18;;;;;;;;;;;13.40;99.90;;;;;;5094572;28;19993;-74
2023/04/14 10:04:44;;;;;;;;;;;13.40;99.90;;;;;;5094121;28;19909;-74
2023/04/14 10:07:11;;;;;;;;;;;13.10;99.90;;;;;;5094405;28;19908;-73
2023/04/14 10:09:36;;;;;;;;;;;12.80;1.00;;;;;;5094237;28;19915;-73
2023/04/14 10:12:06;;;;;;;;;;;12.80;1.00;;;;;;5075986;28;19912;-73
2023/04/14 10:14:32;;;;;;;;;;;12.90;1.00;;;;;;5094033;28;19959;-73
2023/04/14 10:17:01;;;;;;;;;;;13.10;1.00;;;;;;5094265;28;19908;-73
2023/04/14 10:19:26;;;;;;;;;;;13.10;1.00;;;;;;5094112;28;19912;-72
2023/04/14 10:21:52;;;;;;;;;;;12.80;1.00;;;;;;5094677;28;19958;-74
2023/04/14 10:24:21;;;;;;;;;;;12.40;1.00;;;;;;5094084;28;20371;-73
2023/04/14 10:26:48;;;;;;;;;;;12.40;1.00;;;;;;5075788;28;19912;-73
2023/04/14 10:29:15;;;;;;;;;;;12.40;1.00;;;;;;5093963;28;19915;-74
2023/04/14 10:31:47;;;;;;;;;;;12.60;1.00;;;;;;5093916;28;19912;-72
2023/04/14 10:34:13;;;;;;;;;;;12.50;1.00;;;;;;5076059;28;19915;-74
2023/04/14 10:36:40;;;;;;;;;;;12.50;1.00;;;;;;5094003;28;19939;-71
2023/04/14 10:39:06;;;;;;;;;;;12.50;1.00;;;;;;5079512;28;19912;-72
2023/04/14 10:41:44;;;;;;;;;;;12.40;1.00;;;;;;5084028;28;19921;-73
2023/04/14 10:44:25;;;;;;;;;;;12.40;1.00;;;;;;5067335;28;19999;-72
2023/04/14 10:46:55;;;;;;;;;;;12.30;1.00;;;;;;5078946;28;19919;-71
2023/04/14 10:49:31;;;;;;;;;;;12.30;1.00;;;;;;5083749;28;19909;-73
2023/04/14 10:51:58;;;;;;;;;;;12.20;1.00;;;;;;5100687;28;20311;-74
2023/04/14 10:54:24;;;;;;;;;;;12.20;1.00;;;;;;5078092;28;20316;-73
2023/04/14 10:57:11;;;;;;;;;;;12.20;1.00;;;;;;5076900;28;19915;-73
2023/04/14 10:59:41;;;;;;;;;;;12.30;1.00;;;;;;5078055;28;20546;-72
2023/04/14 11:02:26;;;;;;;;;;;12.90;1.00;;;;;;5056679;28;19912;-72
2023/04/14 11:05:02;;;;;;;;;;;15.50;99.90;;;;;;5083769;28;19959;-74
2023/04/14 11:07:29;;;;;;;;;;;21.40;99.90;;;;;;5084735;28;20407;-74
2023/04/14 11:10:13;;;;;;;;;;;24.70;99.90;;;;;;5064059;28;19908;-75
2023/04/14 11:12:44;;;;;;;;;;;27.30;99.90;;;;;;5081667;28;19912;-73
2023/04/14 11:15:10;;;;;;;;;;;28.20;99.90;;;;;;5064771;28;19909;-72
2023/04/14 11:17:37;;;;;;;;;;;29.10;99.90;;;;;;5083797;28;20395;-72
2023/04/14 11:20:23;;;;;;;;;;;27.70;99.90;;;;;;5082047;28;19958;-72
2023/04/14 11:22:51;;;;;;;;;;;25.00;99.90;;;;;;5083585;28;19909;-73
2023/04/14 11:25:18;;;;;;;;;;;22.40;99.90;;;;;;5066016;28;20091;-72
2023/04/14 11:27:44;;;;;;;;;;;22.60;99.90;;;;;;5086098;28;20380;-72
2023/04/14 11:30:14;;;;;;;;;;;20.20;99.90;;;;;;5096155;28;19916;-74
2023/04/14 11:32:50;;;;;;;;;;;18.30;99.90;;;;;;5097290;28;20473;-73
2023/04/14 11:35:16;;;;;;;;;;;17.30;99.90;;;;;;5078883;28;19966;-74
2023/04/14 11:37:42;;;;;;;;;;;19.70;99.90;;;;;;5097337;28;19962;-73
2023/04/14 11:40:11;;;;;;;;;;;20.20;99.90;;;;;;5096887;28;19927;-73
2023/04/14 11:42:37;;;;;;;;;;;20.30;99.90;;;;;;5097143;28;19915;-72
2023/04/14 11:45:03;;;;;;;;;;;20.00;99.90;;;;;;5096996;28;19908;-75
2023/04/14 11:47:29;;;;;;;;;;;18.70;99.90;;;;;;5096946;28;19908;-74
2023/04/14 11:49:54;;;;;;;;;;;17.90;99.90;;;;;;5097367;28;20410;-74
2023/04/14 11:52:20;;;;;;;;;;;19.40;99.90;;;;;;5096736;28;19951;-72
2023/04/14 11:54:46;;;;;;;;;;;20.80;99.90;;;;;;5078593;28;19908;-72
2023/04/14 11:57:12;;;;;;;;;;;20.80;99.90;;;;;;5096792;28;19912;-72
2023/04/14 11:59:42;;;;;;;;;;;24.60;99.90;;;;;;5096707;28;20324;-73
2023/04/14 12:02:14;;;;;;;;;;;28.70;99.90;;;;;;5096632;28;19912;-74
2023/04/14 12:04:39;;;;;;;;;;;31.30;99.90;;;;;;5096788;28;19999;-73
2023/04/14 12:07:09;;;;;;;;;;;31.50;99.90;;;;;;5096610;28;19974;-74
2023/04/14 12:09:38;;;;;;;;;;;31.20;99.90;;;;;;5096499;28;19908;-73
2023/04/14 12:12:08;;;;;;;;;;;29.00;99.90;;;;;;5096600;28;19916;-73
2023/04/14 12:14:35;;;;;;;;;;;23.80;99.90;;;;;;5096580;28;20287;-72
2023/04/14 12:17:00;;;;;;;;;;;20.30;99.90;;;;;;5096504;28;20045;-74
2023/04/14 12:19:26;;;;;;;;;;;18.30;99.90;;;;;;5096346;28;19951;-72
2023/04/14 12:21:52;;;;;;;;;;;17.10;99.90;;;;;;5096494;28;19908;-73
2023/04/14 12:24:17;;;;;;;;;;;24.60;99.90;;;;;;5096553;28;19950;-73
2023/04/14 12:26:43;;;;;;;;;;;30.20;99.90;;;;;;5096219;28;19953;-73
2023/04/14 12:29:11;;;;;;;;;;;31.20;99.90;;;;;;5096173;28;19995;-75
2023/04/14 12:31:40;;;;;;;;;;;33.70;99.90;;;;;;5096054;28;20004;-73
2023/04/14 12:34:06;;;;;;;;;;;31.00;99.90;;;;;;5096241;28;19985;-71
2023/04/14 12:36:31;;;;;;;;;;;25.40;99.90;;;;;;5095698;28;19908;-72
2023/04/14 12:39:03;;;;;;;;;;;22.40;99.90;;;;;;5095982;28;19912;-71
2023/04/14 12:41:29;;;;;;;;;;;20.50;99.90;;;;;;5095659;28;19920;-71
2023/04/14 12:43:55;;;;;;;;;;;20.30;99.90;;;;;;5096137;28;19919;-72
2023/04/14 12:46:24;;;;;;;;;;;25.60;99.90;;;;;;5095858;28;20261;-72
2023/04/14 12:48:50;;;;;;;;;;;24.20;99.90;;;;;;5095767;28;19908;-72
2023/04/14 12:51:16;;;;;;;;;;;26.20;99.90;;;;;;5095618;28;19961;-74
2023/04/14 12:53:43;;;;;;;;;;;31.40;99.90;;;;;;5095775;28;19987;-74
2023/04/14 12:56:12;;;;;;;;;;;26.80;99.90;;;;;;5095662;28;20352;-73
2023/04/14 12:58:38;;;;;;;;;;;26.20;99.90;;;;;;5096276;28;19916;-72
2023/04/14 13:01:05;;;;;;;;;;;26.20;99.90;;;;;;5095520;28;19908;-72
2023/04/14 13:03:37;;;;;;;;;;;24.00;99.90;;;;;;5095650;28;20054;-73
2023/04/14 13:06:03;;;;;;;;;;;24.40;99.90;;;;;;5095509;28;19998;-71
2023/04/14 13:08:29;;;;;;;;;;;21.70;99.90;;;;;;5095393;28;20057;-70
2023/04/14 13:10:55;;;;;;;;;;;19.90;99.90;;;;;;5095501;28;19912;-73
2023/04/14 13:13:20;;;;;;;;;;;19.60;99.90;;;;;;5095499;28;19915;-71
2023/04/14 13:15:46;;;;;;;;;;;19.10;99.90;;;;;;5095225;28;19908;-72
2023/04/14 13:18:12;;;;;;;;;;;21.40;99.90;;;;;;5095215;28;20000;-72
2023/04/14 13:20:37;;;;;;;;;;;21.20;99.90;;;;;;5095157;28;19938;-71
2023/04/14 13:23:03;;;;;;;;;;;19.80;99.90;;;;;;5095111;28;19943;-72
2023/04/14 13:25:28;;;;;;;;;;;19.40;99.90;;;;;;5095246;28;19916;-72
2023/04/14 13:27:54;;;;;;;;;;;20.50;99.90;;;;;;5094988;28;19908;-70
2023/04/14 13:30:19;;;;;;;;;;;18.80;99.90;;;;;;5094886;28;19908;-74
2023/04/14 13:32:45;;;;;;;;;;;18.40;99.90;;;;;;5095275;28;19957;-71
2023/04/14 13:35:11;;;;;;;;;;;19.30;99.90;;;;;;5095178;28;19947;-71
2023/04/14 13:37:37;;;;;;;;;;;19.60;99.90;;;;;;5095077;28;19966;-71
2023/04/14 13:40:03;;;;;;;;;;;19.20;99.90;;;;;;5094530;28;19969;-72
2023/04/14 13:42:28;;;;;;;;;;;18.10;99.90;;;;;;5094796;28;19908;-72
2023/04/14 13:44:54;;;;;;;;;;;20.20;99.90;;;;;;5094902;28;20385;-72
2023/04/14 13:47:19;;;;;;;;;;;21.60;99.90;;;;;;5076489;28;19912;-71
2023/04/14 13:49:45;;;;;;;;;;;21.40;99.90;;;;;;5093955;28;19910;-72
2023/04/14 13:52:10;;;;;;;;;;;20.80;99.90;;;;;;5094450;28;20419;-72
2023/04/14 13:54:36;;;;;;;;;;;20.50;99.90;;;;;;5094511;28;19908;-72
2023/04/14 13:57:02;;;;;;;;;;;24.80;1.00;;;;;;5094851;28;20288;-72
2023/04/14 13:59:28;;;;;;;;;;;26.00;1.00;;;;;;5094438;28;20386;-72
2023/04/14 14:01:53;;;;;;;;;;;27.80;1.00;;;;;;5094361;28;19914;-72
2023/04/14 14:04:19;;;;;;;;;;;26.00;1.00;;;;;;5076396;28;19918;-72
2023/04/14 14:06:45;;;;;;;;;;;23.30;1.00;;;;;;5094290;28;20330;-72
2023/04/14 14:09:10;;;;;;;;;;;21.30;1.00;;;;;;5094231;28;19947;-72
2023/04/14 14:11:40;;;;;;;;;;;20.10;1.00;;;;;;5094320;28;20287;-72
2023/04/14 14:14:06;;;;;;;;;;;19.10;1.00;;;;;;5075999;28;19908;-73
2023/04/14 14:16:32;;;;;;;;;;;;;;;;;;5094134;28;19930;-72
2023/04/14 14:18:58;;;;;;;;;;;17.60;90.50;;;;;;5094092;28;19944;-72
2023/04/14 14:21:25;;;;;;;;;;;19.30;99.90;;;;;;5094050;28;19908;-73
2023/04/14 14:23:51;;;;;;;;;;;22.40;99.90;;;;;;5094016;28;19943;-71
2023/04/14 14:26:16;;;;;;;;;;;26.00;1.00;;;;;;5093959;28;19916;-72